| Record Date MM/DD/YYYY | Record Julian Date NNN day of the year | Air Temperature Max (Degrees Fahrenheit F) | Time Max Air Temperature HH:MM:SS This is the time of max air temperature standard time. | Air Temperature Min (Degrees Fahrenheit F) | Time Min Air Temperature HH:MM:SS This is the time of min air temperature standard time. | Air Temperature Observed (Degrees Fahrenheit F) This is an instantaneous reading for air temperature at 7:00:00 standard time. | Relative Humidity Max (Percent) | Time Max Relative Humidity HH:MM:SS This is the time of max relative humidity standard time. | Relative Humidity Min (Percent) | Time Min Relative Humidity HH:MM:SS This is the time of min relative humidity standard time. | Relative Humidity Observed (Percent) This is an instantaneous reading at 7:00:00 standard time. | Precipitation (Inches n.nn) total rain fall that occurred for the day. | Pan Evaporation (Inches n.nn) total evaporation that occured for the day. | Wind Run (Miles) Wind travel for the day. | Wind Speed (Miles Per Hour) Resultant / Average speed for the day. | Wind Direction (Degrees) Resultant Direction for the day | Solar Radiation (Langley's) that occurred for the day. | Soil Temperature Max at 2 inch depth (Degrees Fahrenheit F) that occurred during the day. | Time Max Soil temperature at 2 inches HH:MM:SS This is the time of max 2 inch soil temperature standard time. | Soil Temperature Min at 2 inch depth (Degrees Fahrenheit F) that occurred during the day. | Time Min Soil temperature at 2 inches HH:MM:SS This is the time of min 2 inch soil temperature standard time. | Soil Temperature Observed at 2 inch depth (Degrees Fahrenheit F) This is an instantaneous reading 2 inch soil temperature at 7:00:00 standard time. | Soil Temperature Max at 4 inch depth (Degrees Fahrenheit F) that occurred during the day. | Time Max Soil temperature at 4 inches HH:MM:SS This is the time of max 4 inch soil temperature standard time. | Soil Temperature Min at 4 inch depth (Degrees Fahrenheit F) that occurred during the day. | Time Min Soil temperature at 4 inches HH:MM:SS This is the time of min 4 inch soil temperature standard time. | Soil Temperature Observed at 4 inch depth (Degrees Fahrenheit F) This is an instantaneous reading 4 inch soil temperature at 7:00:00 standard time. | DD50 Degree Days 50 Fahrenheit. | Adjusted DD50 Degree Days 50 Fahrenheit adjusted for latitude. | DD60 Degree Days 60 Fahrenheit. |
|---|---|---|---|---|---|---|---|---|---|---|---|---|---|---|---|---|---|---|---|---|---|---|---|---|---|---|---|---|---|---|
| 04/06/2026 | 96 | 71 | 15:41:04 | 49 | 23:13:04 | 51 | 92 | 23:18:02 | 33 | 16:30:00 | 78 | 0 | 123 | 5.1 | 12 | 10 | 11.06 | 0 | ||||||||||||
| 04/07/2026 | 97 | 79 | 15:25:01 | 45 | 4:59:05 | 55 | 94 | 5:15:03 | 28 | 13:16:01 | 74 | 0 | 117 | 4.9 | 40 | 12 | 13.1 | 2 | ||||||||||||
| 04/08/2026 | 98 | 82 | 15:02:02 | 49 | 5:42:01 | 61 | 90 | 5:45:01 | 27 | 15:12:03 | 67 | 0 | 50 | 2.1 | 149 | 15.5 | 16.63 | 5.5 | ||||||||||||
| 04/09/2026 | 99 | 81 | 15:34:05 | 54 | 4:37:04 | 59 | 89 | 23:55:04 | 37 | 15:56:00 | 65 | 0 | 53 | 2.2 | 114 | 17.5 | 18.66 | 7.5 | ||||||||||||
| 04/10/2026 | 100 | 83 | 16:01:03 | 51 | 5:26:01 | 62 | 96 | 5:46:05 | 38 | 15:53:03 | 83 | 0 | 27 | 1.1 | 155 | 17 | 18.19 | 7 | ||||||||||||
| 04/11/2026 | 101 | 87 | 15:00:00 | 53 | 5:31:00 | 66 | 96 | 2:43:03 | 32 | 17:01:01 | 94 | 0 | 20 | 0.8 | 175 | 20 | 21.22 | 10 | ||||||||||||
| 04/12/2026 | 102 | 86 | 15:09:02 | 54 | 5:12:04 | 66 | 95 | 5:10:03 | 38 | 16:23:03 | 85 | 0 | 61 | 2.5 | 179 | 20 | 21.25 | 10 | ||||||||||||
| 04/13/2026 | 103 | 85 | 13:47:00 | 60 | 5:52:01 | 62 | 93 | 6:53:00 | 45 | 15:47:03 | 93 | 0 | 64 | 2.7 | 184 | 22.5 | 23.78 | 12.5 | ||||||||||||
| 04/14/2026 | 104 | 86 | 15:34:05 | 59 | 5:31:05 | 62 | 95 | 5:36:02 | 38 | 15:38:03 | 95 | 0 | 56 | 2.3 | 182 | 22.5 | 23.81 | 12.5 | ||||||||||||
| 04/15/2026 | 105 | 84 | 16:30:05 | 58 | 5:17:01 | 65 | 95 | 5:43:02 | 45 | 12:30:01 | 92 | 0 | 66 | 2.7 | 196 | 21 | 22.34 | 11 | ||||||||||||
| 04/16/2026 | 106 | 88 | 15:40:00 | 64 | 23:25:02 | 72 | 94 | 6:11:05 | 42 | 13:30:03 | 86 | 0 | 54 | 2.2 | 209 | 26 | 27.37 | 16 | ||||||||||||
| 04/17/2026 | 107 | 90 | 15:22:05 | 61 | 5:33:05 | 72 | 95 | 5:31:03 | 43 | 15:26:00 | 83 | 0 | 39 | 1.6 | 172 | 25.5 | 26.9 | 15.5 | ||||||||||||
| 04/18/2026 | 108 | 84 | 13:56:00 | 52 | 23:56:03 | 70 | 95 | 23:52:04 | 59 | 13:59:02 | 86 | 0 | 109 | 4.5 | 263 | 18 | 19.43 | 8 | ||||||||||||
| 04/19/2026 | 109 | 71 | 15:29:04 | 48 | 23:36:02 | 51 | 96 | 1:12:03 | 30 | 14:22:03 | 94 | 0.05 | 155 | 6.4 | 2 | 9.5 | 10.96 | 0 | ||||||||||||
| 04/20/2026 | 110 | 80 | 15:02:00 | 43 | 5:39:04 | 55 | 97 | 5:29:00 | 28 | 15:11:02 | 89 | 0 | 21 | 0.9 | 195 | 11.5 | 12.98 | 1.5 | ||||||||||||
| 04/21/2026 | 111 | 84 | 15:06:02 | 46 | 4:34:04 | 61 | 96 | 4:34:00 | 28 | 12:43:03 | 91 | 0 | 31 | 1.3 | 184 | 15 | 16.51 | 5 | ||||||||||||
| 04/22/2026 | 112 | 85 | 14:05:03 | 64 | 23:59:03 | 61 | 79 | 23:59:04 | 32 | 14:06:05 | 85 | 0 | 72 | 3.0 | 172 | 24.5 | 26.04 | 14.5 | ||||||||||||
| 04/23/2026 | 113 | 86 | 14:36:02 | 58 | 5:12:03 | 66 | 95 | 5:33:04 | 34 | 14:37:03 | 88 | 0 | 57 | 2.4 | 168 | 22 | 23.57 | 12 | ||||||||||||
| 04/24/2026 | 114 | 84 | 15:01:05 | 59 | 5:02:04 | 65 | 95 | 22:16:02 | 55 | 15:02:00 | 94 | 0.14 | 69 | 2.9 | 182 | 21.5 | 23.09 | 11.5 | ||||||||||||
| 04/25/2026 | 115 | 85 | 16:17:02 | 63 | 4:49:05 | 64 | 95 | 3:26:01 | 55 | 17:00:01 | 94 | 0.5 | 36 | 1.5 | 240 | 24 | 25.62 | 14 | ||||||||||||
| 04/26/2026 | 116 | 88 | 16:46:05 | 64 | 5:00:05 | 67 | 95 | 0:05:02 | 50 | 15:30:05 | 93 | 0 | 21 | 0.9 | 121 | 26 | 27.64 | 16 | ||||||||||||
| 04/27/2026 | 117 | 91 | 15:31:02 | 66 | 5:19:00 | 72 | 95 | 5:17:01 | 48 | 15:34:04 | 91 | 0 | 81 | 3.4 | 170 | 28.5 | 27.67 | 18.5 | ||||||||||||
| 04/28/2026 | 118 | 76 | 0:00:02 | 68 | 20:16:01 | 72 | 95 | 16:53:04 | 70 | 0:03:03 | 90 | 0.06 | 65 | 2.7 | 139 | 22 | 23.69 | 12 | ||||||||||||
| 04/29/2026 | 119 | 84 | 14:21:04 | 66 | 23:15:03 | 70 | 95 | 22:57:04 | 71 | 16:45:01 | 94 | 0.09 | 58 | 2.4 | 203 | 25 | 26.72 | 15 | ||||||||||||
| 04/30/2026 | 120 | 71 | 13:46:04 | 60 | 23:59:02 | 62 | 96 | 3:13:04 | 58 | 15:50:05 | 94 | 0.04 | 130 | 5.4 | 11 | 15.5 | 17.24 | 5.5 | ||||||||||||
| 05/01/2026 | 121 | 66 | 13:43:01 | 57 | 5:16:02 | 58 | 95 | 19:31:01 | 62 | 13:23:05 | 86 | 0.02 | 70 | 2.9 | 6 | 11.5 | 13.26 | 1.5 | ||||||||||||
| 05/02/2026 | 122 | 72 | 13:59:02 | 51 | 23:59:05 | 56 | 94 | 0:00:01 | 34 | 14:15:01 | 72 | 0 | 136 | 5.7 | 354 | 11.5 | 13.29 | 1.5 | ||||||||||||
| 05/03/2026 | 123 | 79 | 16:36:01 | 45 | 5:01:04 | 57 | 96 | 5:12:01 | 33 | 16:32:04 | 74 | 0.01 | 33 | 1.4 | 16 | 12 | 13.81 | 2 | ||||||||||||
| 05/04/2026 | 124 | 83 | 15:50:04 | 49 | 4:52:00 | 64 | 96 | 5:07:01 | 33 | 14:37:02 | 72 | 0 | 48 | 2.0 | 207 | 16 | 17.83 | 6 | ||||||||||||
| 05/05/2026 | 125 | 79 | 12:25:04 | 57 | 5:08:00 | 65 | 91 | 5:16:01 | 55 | 11:54:02 | 78 | 0.01 | 64 | 2.7 | 177 | 18 | 19.85 | 8 | ||||||||||||
| Average | 81.67 | 55.77 | 62.97 | 94 | 42.7 | 85.33 | 0.03 | 66.2 | 0 | 0 | 0 | 0 | 0 | 0 | 0 | 18.72 | 20.12 | 8.73 | ||||||||||||
| Total | 0.92 | 561.5 | 603.51 | 262 |